Time;durP1;ratioP1;P1;durP2;ratioP2;P2;SDS_P1;SDS_P2;PMS_P1;PMS_P2;Temp;Humidity;BMP_temperature;BMP_pressure;BME280_temperature;BME280_humidity;BME280_pressure;Samples;Min_cycle;Max_cycle;Signal;HPM_P1;HPM_P2
2023/10/02 00:01:10;;;;;;;11.30;7.45;;;16.70;99.90;;;;;;5015079;28;20496;-50
2023/10/02 00:03:40;;;;;;;11.55;7.70;;;16.70;99.90;;;;;;5015276;28;20137;-50
2023/10/02 00:06:11;;;;;;;8.95;7.35;;;16.70;99.90;;;;;;5015492;28;20436;-52
2023/10/02 00:08:51;;;;;;;10.55;7.32;;;16.70;99.90;;;;;;5014893;28;20104;-49
2023/10/02 00:11:37;;;;;;;9.23;7.47;;;16.60;99.90;;;;;;5014781;28;20479;-48
2023/10/02 00:14:20;;;;;;;10.90;7.82;;;16.60;99.90;;;;;;5015126;28;20046;-50
2023/10/02 00:16:59;;;;;;;10.05;7.75;;;16.60;99.90;;;;;;5014348;28;20061;-53
2023/10/02 00:19:28;;;;;;;12.50;8.02;;;16.60;99.90;;;;;;5014751;28;20038;-48
2023/10/02 00:21:57;;;;;;;11.30;7.80;;;16.50;99.90;;;;;;5014978;28;20541;-50
2023/10/02 00:24:24;;;;;;;10.52;8.02;;;16.50;99.90;;;;;;5014612;28;20048;-49
2023/10/02 00:26:51;;;;;;;12.60;8.63;;;16.50;99.90;;;;;;5014236;28;20069;-52
2023/10/02 00:29:18;;;;;;;10.82;8.15;;;16.50;99.90;;;;;;5014586;28;20524;-51
2023/10/02 00:31:46;;;;;;;9.48;7.97;;;16.60;99.90;;;;;;5013267;28;20096;-49
2023/10/02 00:34:16;;;;;;;12.90;8.32;;;16.60;99.90;;;;;;5014642;28;20049;-52
2023/10/02 00:36:43;;;;;;;10.88;8.13;;;16.60;99.90;;;;;;5013295;28;20045;-54
2023/10/02 00:39:30;;;;;;;9.68;8.20;;;16.60;99.90;;;;;;5014746;28;20042;-49
2023/10/02 00:42:16;;;;;;;11.55;8.05;;;16.60;99.90;;;;;;5014445;28;20460;-49
2023/10/02 00:44:53;;;;;;;;;;;16.70;99.90;;;;;;5014955;28;20072;-52
2023/10/02 00:47:36;;;;;;;9.82;7.28;;;16.70;99.90;;;;;;5014500;28;19971;-49
2023/10/02 00:50:08;;;;;;;10.43;7.63;;;16.70;99.90;;;;;;5014427;28;20042;-54
2023/10/02 00:52:36;;;;;;;10.38;8.00;;;16.70;99.90;;;;;;5012646;28;20355;-48
2023/10/02 00:55:06;;;;;;;8.50;7.50;;;16.70;99.90;;;;;;5013499;28;20104;-50
2023/10/02 00:57:35;;;;;;;11.80;7.70;;;16.70;99.90;;;;;;5013890;28;20041;-51
2023/10/02 01:00:05;;;;;;;9.20;7.80;;;16.70;99.90;;;;;;5012703;28;20462;-52
2023/10/02 01:02:35;;;;;;;8.65;7.32;;;16.70;99.90;;;;;;5012252;28;20050;-48
2023/10/02 01:05:06;;;;;;;9.80;7.35;;;16.70;99.90;;;;;;5013570;28;20046;-48
2023/10/02 01:07:33;;;;;;;10.82;7.55;;;16.70;99.90;;;;;;5013763;28;20394;-56
2023/10/02 01:10:11;;;;;;;9.40;7.35;;;16.70;99.90;;;;;;5013836;28;20045;-52
2023/10/02 01:12:43;;;;;;;10.05;7.65;;;16.70;99.90;;;;;;5012459;28;20085;-49
2023/10/02 01:15:13;;;;;;;10.23;7.90;;;16.60;99.90;;;;;;5012352;28;20124;-49
2023/10/02 01:17:40;;;;;;;13.85;8.57;;;16.60;99.90;;;;;;5014144;28;20048;-49
2023/10/02 01:20:20;;;;;;;10.32;8.13;;;16.60;99.90;;;;;;5013764;28;20045;-51
2023/10/02 01:22:51;;;;;;;10.88;7.65;;;16.60;99.90;;;;;;5013825;28;20112;-51
2023/10/02 01:25:20;;;;;;;11.77;8.52;;;16.60;99.90;;;;;;5013795;28;20049;-51
2023/10/02 01:27:47;;;;;;;10.25;8.05;;;16.50;99.90;;;;;;5013607;28;20409;-49
2023/10/02 01:30:15;;;;;;;10.70;8.35;;;16.50;99.90;;;;;;5012169;28;20384;-51
2023/10/02 01:32:42;;;;;;;12.95;8.38;;;16.50;99.90;;;;;;5013486;28;20128;-47
2023/10/02 01:35:10;;;;;;;12.55;8.43;;;16.50;99.90;;;;;;5013627;28;20046;-48
2023/10/02 01:37:37;;;;;;;9.82;8.15;;;16.50;99.90;;;;;;5013579;28;20492;-52
2023/10/02 01:42:49;;;;;;;10.23;8.20;;;16.50;99.90;;;;;;5012544;28;20432;-50
2023/10/02 01:45:16;;;;;;;10.77;8.75;;;16.50;99.90;;;;;;5013108;28;20080;-51
2023/10/02 01:47:42;;;;;;;10.07;9.07;;;16.40;99.90;;;;;;5013065;28;20038;-52
2023/10/02 01:50:09;;;;;;;12.65;9.10;;;16.50;99.90;;;;;;5013268;28;20049;-51
2023/10/02 01:52:37;;;;;;;12.52;9.68;;;16.50;99.90;;;;;;5012244;28;20124;-52
2023/10/02 01:55:29;;;;;;;11.52;9.23;;;16.40;99.90;;;;;;5012358;28;20133;-52
2023/10/02 01:58:16;;;;;;;13.20;10.25;;;16.40;99.90;;;;;;5011746;28;20169;-50
2023/10/02 02:00:45;;;;;;;13.18;9.70;;;16.40;99.90;;;;;;5011944;28;20125;-50
2023/10/02 02:03:15;;;;;;;14.73;9.77;;;16.40;99.90;;;;;;5013386;28;20046;-50
2023/10/02 02:05:46;;;;;;;13.32;10.57;;;16.40;99.90;;;;;;5013552;28;20046;-46
2023/10/02 02:08:22;;;;;;;15.93;10.65;;;16.40;99.90;;;;;;5015657;28;20041;-50
2023/10/02 02:10:50;;;;;;;12.85;10.38;;;16.30;99.90;;;;;;5015581;28;20061;-46
2023/10/02 02:13:17;;;;;;;14.68;9.75;;;16.30;99.90;;;;;;5016974;28;20038;-49
2023/10/02 02:15:43;;;;;;;12.77;10.27;;;16.30;99.90;;;;;;5017101;28;20049;-51
2023/10/02 02:18:10;;;;;;;13.75;10.55;;;16.30;99.90;;;;;;5015844;28;20481;-50
2023/10/02 02:23:22;;;;;;;13.35;9.88;;;16.20;99.90;;;;;;5015586;28;20136;-51
2023/10/02 02:25:49;;;;;;;12.75;9.90;;;16.20;99.90;;;;;;5016695;28;20099;-48
2023/10/02 02:28:17;;;;;;;13.38;10.02;;;16.20;99.90;;;;;;5015424;28;20445;-54
2023/10/02 02:30:43;;;;;;;13.30;10.10;;;16.10;99.90;;;;;;5015650;28;20041;-50
2023/10/02 02:33:12;;;;;;;11.73;9.88;;;16.10;99.90;;;;;;5015460;28;20046;-50
2023/10/02 02:35:39;;;;;;;12.68;9.98;;;16.10;99.90;;;;;;5016934;28;20478;-51
2023/10/02 02:38:15;;;;;;;11.90;10.60;;;16.10;99.90;;;;;;5016725;28;20041;-51
2023/10/02 02:40:42;;;;;;;13.30;10.00;;;16.20;99.90;;;;;;5016544;28;20053;-47
2023/10/02 02:43:21;;;;;;;13.70;9.88;;;16.10;99.90;;;;;;5015381;28;20042;-50
2023/10/02 02:45:48;;;;;;;13.20;10.45;;;16.10;99.90;;;;;;5016444;28;20489;-51
2023/10/02 02:48:16;;;;;;;14.00;10.25;;;16.10;99.90;;;;;;5016280;28;20046;-50
2023/10/02 02:50:43;;;;;;;13.48;10.07;;;16.10;99.90;;;;;;5016144;28;20049;-49
2023/10/02 02:53:30;;;;;;;12.57;9.60;;;16.10;99.90;;;;;;5016675;28;20049;-50
2023/10/02 02:55:58;;;;;;;13.00;9.45;;;16.10;99.90;;;;;;5015181;28;20090;-50
2023/10/02 02:58:25;;;;;;;13.38;9.77;;;16.20;99.90;;;;;;5015985;28;20566;-52
2023/10/02 03:00:53;;;;;;;12.80;9.43;;;16.20;99.90;;;;;;5016130;28;20469;-49
2023/10/02 03:03:35;;;;;;;11.27;8.90;;;16.20;99.90;;;;;;5016334;28;20042;-49
2023/10/02 03:06:04;;;;;;;11.80;9.10;;;16.20;99.90;;;;;;5015935;28;20038;-51
2023/10/02 03:08:41;;;;;;;11.27;8.35;;;16.30;99.90;;;;;;5015508;28;20481;-52
2023/10/02 03:11:08;;;;;;;11.80;9.10;;;16.30;99.90;;;;;;5016309;28;20049;-50
2023/10/02 03:13:35;;;;;;;12.98;9.27;;;16.30;99.90;;;;;;5014798;28;20041;-53
2023/10/02 03:16:08;;;;;;;11.70;9.18;;;16.30;99.90;;;;;;5015940;28;20420;-47
2023/10/02 03:18:43;;;;;;;10.70;9.30;;;16.30;99.90;;;;;;5015211;28;20042;-52
2023/10/02 03:23:38;;;;;;;13.13;10.60;;;16.40;99.90;;;;;;5016037;28;20046;-51
2023/10/02 03:26:07;;;;;;;10.75;9.65;;;16.40;99.90;;;;;;5015775;28;20061;-48
2023/10/02 03:28:35;;;;;;;13.45;11.27;;;16.40;99.90;;;;;;5031379;28;20057;-50
2023/10/02 03:31:02;;;;;;;14.10;10.98;;;16.40;99.90;;;;;;5035590;28;20120;-52
2023/10/02 03:33:31;;;;;;;13.90;11.85;;;16.50;99.90;;;;;;5035556;28;20469;-48
2023/10/02 03:35:58;;;;;;;14.00;11.95;;;16.50;99.90;;;;;;5035002;28;20037;-54
2023/10/02 03:38:25;;;;;;;14.40;11.40;;;16.50;99.90;;;;;;5035316;28;20038;-50
2023/10/02 03:40:52;;;;;;;14.77;12.75;;;16.60;99.90;;;;;;5035467;28;20065;-51
2023/10/02 03:43:18;;;;;;;14.23;12.18;;;16.60;99.90;;;;;;5034973;28;20056;-52
2023/10/02 03:45:46;;;;;;;14.38;12.88;;;16.60;99.90;;;;;;5035060;28;20052;-47
2023/10/02 03:48:15;;;;;;;16.35;12.90;;;16.60;99.90;;;;;;5034791;28;20045;-51
2023/10/02 03:50:44;;;;;;;17.70;14.27;;;16.60;99.90;;;;;;5034781;28;20054;-50
2023/10/02 03:53:28;;;;;;;22.83;16.60;;;16.70;99.90;;;;;;5035143;28;20045;-48
2023/10/02 03:55:59;;;;;;;17.30;14.55;;;16.70;99.90;;;;;;5034925;28;20489;-47
2023/10/02 03:58:38;;;;;;;18.40;15.18;;;16.70;99.90;;;;;;5034928;28;20112;-51
2023/10/02 04:01:08;;;;;;;21.10;15.50;;;16.70;99.90;;;;;;5034664;28;20049;-49
2023/10/02 04:03:53;;;;;;;18.13;14.73;;;16.70;99.90;;;;;;5035039;28;20041;-49
2023/10/02 04:06:27;;;;;;;18.03;14.93;;;16.70;99.90;;;;;;5034580;28;20073;-48
2023/10/02 04:09:06;;;;;;;20.25;15.68;;;16.70;99.90;;;;;;5033341;28;20654;-51
2023/10/02 04:11:33;;;;;;;19.05;14.52;;;16.70;99.90;;;;;;5034794;28;20397;-49
2023/10/02 04:14:00;;;;;;;17.85;15.38;;;16.70;99.90;;;;;;5033362;28;20392;-47
2023/10/02 04:16:30;;;;;;;17.60;15.00;;;16.70;99.90;;;;;;5034900;28;20489;-52
2023/10/02 04:19:02;;;;;;;18.65;14.82;;;16.70;99.90;;;;;;5034483;28;20389;-51
2023/10/02 04:21:29;;;;;;;19.85;14.88;;;16.80;99.90;;;;;;5034879;28;20195;-47
2023/10/02 04:23:58;;;;;;;16.35;14.18;;;16.80;99.90;;;;;;5034540;28;20545;-49
2023/10/02 04:26:28;;;;;;;14.18;12.38;;;16.80;99.90;;;;;;5034372;28;20473;-53
2023/10/02 04:28:58;;;;;;;16.40;11.32;;;16.70;99.90;;;;;;5034121;28;20469;-52
2023/10/02 04:31:27;;;;;;;15.35;11.75;;;16.70;99.90;;;;;;5033714;28;20052;-47
2023/10/02 04:36:41;;;;;;;16.27;12.65;;;16.70;99.90;;;;;;5033906;28;20531;-47
2023/10/02 04:39:36;;;;;;;15.63;12.52;;;16.70;99.90;;;;;;5034004;28;20077;-48
2023/10/02 04:42:15;;;;;;;16.25;11.70;;;16.80;99.90;;;;;;5034001;28;20065;-49
2023/10/02 04:44:45;;;;;;;16.90;12.90;;;16.70;99.90;;;;;;5034187;28;20116;-46
2023/10/02 04:47:17;;;;;;;17.10;12.45;;;16.70;99.90;;;;;;5033849;28;20053;-49
2023/10/02 04:50:34;;;;;;;14.75;12.32;;;16.70;99.90;;;;;;5034018;28;20041;-46
2023/10/02 04:55:41;;;;;;;;;;;16.70;99.90;;;;;;5034245;28;20390;-49
2023/10/02 04:58:09;;;;;;;17.48;12.10;;;16.70;99.90;;;;;;5033901;28;19921;-49
2023/10/02 05:00:38;;;;;;;17.25;11.70;;;16.70;99.90;;;;;;5033640;28;20052;-51
2023/10/02 05:03:49;;;;;;;19.83;12.48;;;16.70;99.90;;;;;;5033700;28;20047;-51
2023/10/02 05:06:03;;;;;;;15.50;12.80;;;16.70;99.90;;;;;;5034166;28;20115;-47
2023/10/02 05:09:11;;;;;;;16.45;12.68;;;16.70;99.90;;;;;;5033210;28;20045;-49
2023/10/02 05:11:50;;;;;;;15.93;12.10;;;16.60;99.90;;;;;;5033253;28;20086;-49
2023/10/02 05:14:16;;;;;;;16.50;12.95;;;16.60;99.90;;;;;;5033508;28;20037;-51
2023/10/02 05:16:45;;;;;;;16.05;12.70;;;16.50;99.90;;;;;;5033286;28;20037;-51
2023/10/02 05:19:15;;;;;;;18.00;13.00;;;16.50;99.90;;;;;;5033523;28;20046;-51
2023/10/02 05:21:51;;;;;;;19.20;13.63;;;16.50;99.90;;;;;;5033250;28;20038;-46
2023/10/02 05:24:18;;;;;;;18.85;12.50;;;16.50;99.90;;;;;;5033464;28;20072;-49
2023/10/02 05:26:46;;;;;;;20.40;13.32;;;16.50;99.90;;;;;;5033354;28;20045;-45
2023/10/02 05:29:17;;;;;;;16.88;12.60;;;16.50;99.90;;;;;;5033008;28;20160;-47
2023/10/02 05:31:45;;;;;;;17.15;11.50;;;16.50;99.90;;;;;;5033372;28;20045;-52
2023/10/02 05:34:34;;;;;;;17.77;12.77;;;16.50;99.90;;;;;;5032959;28;20045;-49
2023/10/02 05:37:23;;;;;;;22.08;13.98;;;16.50;99.90;;;;;;5033025;28;20345;-46
2023/10/02 05:39:50;;;;;;;21.67;13.98;;;16.40;99.90;;;;;;5033406;28;20096;-49
2023/10/02 05:42:17;;;;;;;19.38;14.40;;;16.30;99.90;;;;;;5033285;28;20045;-54
2023/10/02 05:44:43;;;;;;;18.63;14.52;;;16.30;99.90;;;;;;5033473;28;20038;-50
2023/10/02 05:47:11;;;;;;;20.77;15.25;;;16.30;99.90;;;;;;5032637;28;20068;-51
2023/10/02 05:49:47;;;;;;;17.05;14.40;;;16.30;99.90;;;;;;5033778;28;20052;-51
2023/10/02 05:52:14;;;;;;;21.63;16.05;;;16.30;99.90;;;;;;5033051;28;20046;-46
2023/10/02 05:54:47;;;;;;;19.05;14.68;;;16.40;99.90;;;;;;5033291;28;20046;-48
2023/10/02 05:57:15;;;;;;;18.95;14.20;;;16.40;99.90;;;;;;5032778;28;20041;-50
2023/10/02 05:59:45;;;;;;;24.73;17.52;;;16.40;99.90;;;;;;5033114;28;20048;-51
2023/10/02 06:02:12;;;;;;;20.02;16.38;;;16.40;99.90;;;;;;5033167;28;20096;-48
2023/10/02 06:04:43;;;;;;;18.83;15.95;;;16.40;99.90;;;;;;5032989;28;20040;-52
2023/10/02 06:07:11;;;;;;;18.73;16.02;;;16.40;99.90;;;;;;5031793;28;20050;-48
2023/10/02 06:09:44;;;;;;;21.13;16.33;;;16.40;99.90;;;;;;5033493;28;20046;-52
2023/10/02 06:12:14;;;;;;;;;;;16.40;99.90;;;;;;5033413;28;20473;-47
2023/10/02 06:14:42;;;;;;;20.67;13.13;;;16.40;99.90;;;;;;5031923;28;19928;-48
2023/10/02 06:17:12;;;;;;;19.92;15.40;;;16.40;99.90;;;;;;5032791;28;20137;-46
2023/10/02 06:19:42;;;;;;;18.35;13.77;;;16.50;99.90;;;;;;5032913;28;20477;-49
2023/10/02 06:22:13;;;;;;;20.08;14.77;;;16.50;99.90;;;;;;5032963;28;20097;-49
2023/10/02 06:24:39;;;;;;;21.42;14.10;;;16.50;99.90;;;;;;5031802;28;20115;-48
2023/10/02 06:27:14;;;;;;;17.85;13.50;;;16.50;99.90;;;;;;5031219;28;20477;-47
2023/10/02 06:29:43;;;;;;;21.83;14.82;;;16.40;99.90;;;;;;5032782;28;20053;-48
2023/10/02 06:32:11;;;;;;;17.92;12.77;;;16.40;99.90;;;;;;5032650;28;20045;-50
2023/10/02 06:34:38;;;;;;;17.88;14.02;;;16.40;99.90;;;;;;5032871;28;20484;-49
2023/10/02 06:37:11;;;;;;;17.30;13.02;;;16.30;99.90;;;;;;5032882;28;20037;-49
2023/10/02 06:39:40;;;;;;;18.35;14.88;;;16.30;99.90;;;;;;5032857;28;20065;-51
2023/10/02 06:42:06;;;;;;;20.73;15.43;;;16.30;99.90;;;;;;5033009;28;20033;-46
2023/10/02 06:44:52;;;;;;;21.27;14.80;;;16.40;99.90;;;;;;5033049;28;20045;-51
2023/10/02 06:47:21;;;;;;;19.83;14.57;;;16.40;99.90;;;;;;5032723;28;20124;-52
2023/10/02 06:49:51;;;;;;;18.40;13.95;;;16.50;99.90;;;;;;5032202;28;20072;-53
2023/10/02 06:52:18;;;;;;;24.80;13.18;;;16.50;99.90;;;;;;5032609;28;20045;-53
2023/10/02 06:54:45;;;;;;;19.02;14.52;;;16.50;99.90;;;;;;5035730;28;20128;-54
2023/10/02 06:57:13;;;;;;;25.13;15.18;;;16.50;99.90;;;;;;5035729;28;20105;-50
2023/10/02 06:59:39;;;;;;;28.05;14.48;;;16.60;99.90;;;;;;5036425;28;20064;-48
2023/10/02 07:02:06;;;;;;;26.52;14.90;;;16.60;99.90;;;;;;5034787;28;20068;-50
2023/10/02 07:04:35;;;;;;;21.02;14.60;;;16.60;99.90;;;;;;5036033;28;20037;-50
2023/10/02 07:07:03;;;;;;;21.42;14.65;;;16.60;99.90;;;;;;5035857;28;20045;-54
2023/10/02 07:09:30;;;;;;;21.20;15.32;;;16.60;99.90;;;;;;5035826;28;20049;-51
2023/10/02 07:12:08;;;;;;;22.45;16.02;;;16.50;99.90;;;;;;5036150;28;20425;-46
2023/10/02 07:14:36;;;;;;;17.45;13.55;;;16.50;99.90;;;;;;5036152;28;20472;-49
2023/10/02 07:17:11;;;;;;;18.38;13.85;;;16.50;99.90;;;;;;5035475;28;20124;-52
2023/10/02 07:19:38;;;;;;;19.33;13.65;;;16.60;99.90;;;;;;5035511;28;20038;-50
2023/10/02 07:22:16;;;;;;;17.13;12.63;;;16.70;99.90;;;;;;5035755;28;20072;-50
2023/10/02 07:24:45;;;;;;;16.00;12.38;;;16.80;99.90;;;;;;5035693;28;20121;-49
2023/10/02 07:27:28;;;;;;;16.02;12.05;;;16.80;99.90;;;;;;5035251;28;20052;-49
2023/10/02 07:29:54;;;;;;;17.65;12.07;;;16.80;99.90;;;;;;5035345;28;20556;-51
2023/10/02 07:32:21;;;;;;;16.38;11.32;;;16.90;99.90;;;;;;5035236;28;20045;-49
2023/10/02 07:34:50;;;;;;;14.35;12.05;;;16.90;99.90;;;;;;5035191;28;20045;-50
2023/10/02 07:37:21;;;;;;;18.00;11.45;;;16.90;99.90;;;;;;5035162;28;20045;-52
2023/10/02 07:39:48;;;;;;;15.95;12.20;;;16.90;99.90;;;;;;5035154;28;20048;-49
2023/10/02 07:42:16;;;;;;;15.65;12.55;;;16.90;99.90;;;;;;5035311;28;20099;-52
2023/10/02 07:44:43;;;;;;;15.10;12.55;;;17.00;99.90;;;;;;5035194;28;20133;-50
2023/10/02 07:47:27;;;;;;;14.05;10.40;;;17.00;99.90;;;;;;5035266;28;20056;-51
2023/10/02 07:49:59;;;;;;;17.02;11.38;;;17.10;99.90;;;;;;5034174;28;20120;-55
2023/10/02 07:52:40;;;;;;;16.92;12.60;;;17.10;99.90;;;;;;5034754;28;20050;-52
2023/10/02 07:55:10;;;;;;;14.00;12.05;;;17.10;99.90;;;;;;5035254;28;20045;-53
2023/10/02 07:57:38;;;;;;;13.82;11.60;;;17.20;99.90;;;;;;5034786;28;20092;-55
2023/10/02 08:00:06;;;;;;;17.33;13.20;;;17.20;99.90;;;;;;5034905;28;20042;-53
2023/10/02 08:02:35;;;;;;;14.68;11.82;;;17.20;99.90;;;;;;5034774;28;20368;-51
2023/10/02 08:05:04;;;;;;;13.25;10.35;;;17.30;99.90;;;;;;5034039;28;20087;-48
2023/10/02 08:07:33;;;;;;;12.43;10.63;;;17.20;99.90;;;;;;5034862;28;20049;-53
2023/10/02 08:10:12;;;;;;;12.43;10.82;;;17.30;99.90;;;;;;5034918;28;20057;-50
2023/10/02 08:12:54;;;;;;;16.50;11.70;;;17.30;99.90;;;;;;5034869;28;20045;-54
2023/10/02 08:15:32;;;;;;;13.65;11.20;;;17.30;99.90;;;;;;5034698;28;20132;-52
2023/10/02 08:18:03;;;;;;;15.90;12.50;;;17.30;99.90;;;;;;5034863;28;20068;-52
2023/10/02 08:20:37;;;;;;;14.85;11.55;;;17.40;99.90;;;;;;5034763;28;20069;-50
2023/10/02 08:23:04;;;;;;;16.48;10.50;;;17.40;99.90;;;;;;5034663;28;20046;-49
2023/10/02 08:25:33;;;;;;;13.32;11.00;;;17.40;99.90;;;;;;5034568;28;20377;-51
2023/10/02 08:28:00;;;;;;;17.40;11.48;;;17.40;99.90;;;;;;5033970;28;20087;-50
2023/10/02 08:30:27;;;;;;;15.18;12.13;;;17.40;99.90;;;;;;5034277;28;20053;-50
2023/10/02 08:32:55;;;;;;;16.23;11.98;;;17.40;99.90;;;;;;5034646;28;20136;-51
2023/10/02 08:35:24;;;;;;;13.82;11.60;;;17.50;99.90;;;;;;5034217;28;20064;-46
2023/10/02 08:37:54;;;;;;;11.88;9.73;;;17.60;99.90;;;;;;5033415;28;20042;-50
2023/10/02 08:40:21;;;;;;;12.65;9.88;;;17.60;99.90;;;;;;5033994;28;20044;-48
2023/10/02 08:42:48;;;;;;;12.63;10.07;;;17.60;99.90;;;;;;5034126;28;20099;-53
2023/10/02 08:45:18;;;;;;;14.13;8.98;;;17.70;99.90;;;;;;5034011;28;20531;-54
2023/10/02 08:47:47;;;;;;;11.15;7.78;;;17.80;99.90;;;;;;5033720;28;20396;-51
2023/10/02 08:50:15;;;;;;;10.55;8.43;;;17.90;99.90;;;;;;5034067;28;20060;-50
2023/10/02 08:52:47;;;;;;;9.07;7.35;;;17.90;99.90;;;;;;5034149;28;20042;-51
2023/10/02 08:55:26;;;;;;;7.63;6.63;;;18.00;99.90;;;;;;5033760;28;20037;-50
2023/10/02 08:57:55;;;;;;;8.20;6.57;;;18.00;99.90;;;;;;5033896;28;20064;-55
2023/10/02 09:00:38;;;;;;;7.40;6.25;;;18.10;99.90;;;;;;5033760;28;20099;-50
2023/10/02 09:03:11;;;;;;;8.48;7.15;;;18.20;99.90;;;;;;5034278;28;20083;-50
2023/10/02 09:05:38;;;;;;;9.93;7.95;;;18.20;99.90;;;;;;5033705;28;20041;-50
2023/10/02 09:08:07;;;;;;;8.50;7.57;;;18.20;99.90;;;;;;5033827;28;20473;-50
2023/10/02 09:10:41;;;;;;;9.55;7.28;;;18.20;99.90;;;;;;5033668;28;20052;-53
2023/10/02 09:13:08;;;;;;;8.40;7.43;;;18.20;99.90;;;;;;5029216;28;20473;-50
2023/10/02 09:15:35;;;;;;;8.57;7.55;;;18.30;99.90;;;;;;5031525;28;20049;-53
2023/10/02 09:18:22;;;;;;;9.70;7.93;;;18.40;99.90;;;;;;5027760;28;20128;-53
2023/10/02 09:20:51;;;;;;;8.98;7.70;;;18.40;99.90;;;;;;5032835;28;20076;-49
2023/10/02 09:23:19;;;;;;;10.05;7.30;;;18.60;99.90;;;;;;5033119;28;20053;-53
2023/10/02 09:25:45;;;;;;;7.85;7.05;;;18.70;99.90;;;;;;5031531;28;20045;-50
2023/10/02 09:28:15;;;;;;;8.88;6.13;;;18.70;99.90;;;;;;5032574;28;20128;-48
2023/10/02 09:30:42;;;;;;;7.55;6.80;;;18.80;99.90;;;;;;5032633;28;20501;-51
2023/10/02 09:33:14;;;;;;;9.73;7.55;;;18.90;99.90;;;;;;5032654;28;20453;-48
2023/10/02 09:36:05;;;;;;;7.95;6.93;;;19.00;99.90;;;;;;5032882;28;20059;-52
2023/10/02 09:38:52;;;;;;;6.82;6.07;;;19.10;99.90;;;;;;5032853;28;20056;-52
2023/10/02 09:41:20;;;;;;;7.57;6.53;;;19.10;99.90;;;;;;5032894;28;20055;-50
2023/10/02 09:43:49;;;;;;;7.00;5.93;;;19.20;99.90;;;;;;5032659;28;20108;-53
2023/10/02 09:46:16;;;;;;;7.03;5.50;;;19.20;99.90;;;;;;5032508;28;20037;-51
2023/10/02 09:48:46;;;;;;;6.00;5.40;;;19.30;99.90;;;;;;5032770;28;20053;-49
2023/10/02 09:51:14;;;;;;;5.97;5.38;;;19.40;99.90;;;;;;5032566;28;20053;-47
2023/10/02 09:53:41;;;;;;;6.05;5.40;;;19.50;99.90;;;;;;5031682;28;20048;-53
2023/10/02 09:56:08;;;;;;;6.47;5.53;;;19.60;99.90;;;;;;5028817;28;20037;-53
2023/10/02 09:58:35;;;;;;;6.13;4.53;;;19.70;99.90;;;;;;5029372;28;20546;-52
2023/10/02 10:01:05;;;;;;;5.10;4.60;;;19.80;99.90;;;;;;5031174;28;20374;-50
2023/10/02 10:03:32;;;;;;;4.63;4.15;;;19.90;99.90;;;;;;5031820;28;20388;-53
2023/10/02 10:06:05;;;;;;;4.65;4.07;;;19.90;99.90;;;;;;5032098;28;20065;-50
2023/10/02 10:08:33;;;;;;;6.55;5.32;;;19.90;99.90;;;;;;5032469;28;20404;-52
2023/10/02 10:11:10;;;;;;;7.75;5.78;;;20.00;99.90;;;;;;5032351;28;20445;-53
2023/10/02 10:13:38;;;;;;;5.70;5.20;;;19.90;99.90;;;;;;5032388;28;20038;-52
2023/10/02 10:16:05;;;;;;;5.95;5.35;;;19.80;99.90;;;;;;5032515;28;20115;-50
2023/10/02 10:18:31;;;;;;;5.68;5.05;;;19.80;99.90;;;;;;5032169;28;20049;-55
2023/10/02 10:20:58;;;;;;;5.85;4.72;;;20.00;99.90;;;;;;5031788;28;20064;-50
2023/10/02 10:23:34;;;;;;;5.85;5.25;;;20.00;99.90;;;;;;5031082;28;20041;-53
2023/10/02 10:26:08;;;;;;;5.22;4.72;;;20.00;99.90;;;;;;5032032;28;20103;-53
2023/10/02 10:28:50;;;;;;;5.00;4.30;;;20.10;99.90;;;;;;5032711;28;20037;-55
2023/10/02 10:31:18;;;;;;;5.82;5.28;;;20.30;99.90;;;;;;5029862;28;20156;-51
2023/10/02 10:33:45;;;;;;;6.70;5.18;;;20.30;99.90;;;;;;5034623;28;20088;-48
2023/10/02 10:36:13;;;;;;;7.85;7.05;;;20.30;99.90;;;;;;5035915;28;20503;-52
2023/10/02 10:38:46;;;;;;;6.82;6.13;;;20.40;99.90;;;;;;5034383;28;20124;-49
2023/10/02 10:41:15;;;;;;;7.95;6.55;;;20.40;99.90;;;;;;5035479;28;20128;-53
2023/10/02 10:43:52;;;;;;;9.85;6.97;;;20.50;99.90;;;;;;5034740;28;20041;-50
2023/10/02 10:46:19;;;;;;;7.22;6.53;;;20.50;99.90;;;;;;5035346;28;20041;-51
2023/10/02 10:48:48;;;;;;;9.45;7.10;;;20.50;99.90;;;;;;5035006;28;20428;-52
2023/10/02 10:51:22;;;;;;;6.75;5.50;;;20.60;99.90;;;;;;5034097;28;20050;-50
2023/10/02 10:53:52;;;;;;;5.20;4.57;;;20.70;99.90;;;;;;5034465;28;20036;-51
2023/10/02 10:56:22;;;;;;;4.72;4.15;;;20.80;99.90;;;;;;5035176;28;20125;-48
2023/10/02 10:58:51;;;;;;;8.15;4.30;;;20.90;99.90;;;;;;5034808;28;20061;-53
2023/10/02 11:01:20;;;;;;;5.65;4.68;;;21.00;99.90;;;;;;5035343;28;20045;-51
2023/10/02 11:03:58;;;;;;;5.85;4.53;;;21.00;99.90;;;;;;5034233;28;20111;-53
2023/10/02 11:06:25;;;;;;;3.60;3.08;;;21.00;99.90;;;;;;5035017;28;20037;-52
2023/10/02 11:08:52;;;;;;;5.57;2.95;;;21.00;99.90;;;;;;5034265;28;20453;-50
2023/10/02 11:11:19;;;;;;;4.35;3.78;;;21.00;99.90;;;;;;5035083;28;20037;-50
2023/10/02 11:14:00;;;;;;;4.93;3.83;;;21.00;99.90;;;;;;5034173;28;20041;-52
2023/10/02 11:16:30;;;;;;;4.10;3.33;;;20.90;99.90;;;;;;5034724;28;20132;-50
2023/10/02 11:19:07;;;;;;;6.97;4.00;;;20.90;99.90;;;;;;5033609;28;20121;-51
2023/10/02 11:21:45;;;;;;;7.07;3.72;;;21.00;99.90;;;;;;5034393;28;20137;-50
2023/10/02 11:24:19;;;;;;;5.75;3.15;;;21.10;99.90;;;;;;5035003;28;20050;-49
2023/10/02 11:26:47;;;;;;;4.50;3.60;;;21.10;99.90;;;;;;5033823;28;20055;-53
2023/10/02 11:29:14;;;;;;;4.10;3.45;;;21.10;99.90;;;;;;5034919;28;20060;-50
2023/10/02 11:31:46;;;;;;;5.53;4.10;;;21.20;99.90;;;;;;5034003;28;20046;-51
2023/10/02 11:34:12;;;;;;;5.13;4.57;;;21.30;99.90;;;;;;5034537;28;20034;-54
2023/10/02 11:36:52;;;;;;;5.15;4.28;;;21.40;99.90;;;;;;5033668;28;20056;-53
2023/10/02 11:39:19;;;;;;;7.18;6.47;;;21.50;99.90;;;;;;5034333;28;20041;-50
2023/10/02 11:41:46;;;;;;;7.72;6.93;;;21.60;99.90;;;;;;5034240;28;20046;-54
2023/10/02 11:44:13;;;;;;;7.45;6.70;;;21.80;99.90;;;;;;5033709;28;20045;-50
2023/10/02 11:46:48;;;;;;;9.30;7.13;;;21.70;99.90;;;;;;5034384;28;20466;-51
2023/10/02 11:49:15;;;;;;;8.07;5.93;;;21.80;99.90;;;;;;5027847;28;20046;-50
2023/10/02 11:51:44;;;;;;;7.07;5.93;;;21.90;99.90;;;;;;5034138;28;20061;-53
2023/10/02 11:54:13;;;;;;;6.00;5.28;;;21.80;99.90;;;;;;5027661;28;20041;-52
2023/10/02 11:56:42;;;;;;;6.90;4.10;;;21.90;99.90;;;;;;5028580;28;20116;-51
2023/10/02 11:59:14;;;;;;;5.68;4.30;;;21.90;99.90;;;;;;5028366;28;20055;-51
2023/10/02 12:01:43;;;;;;;4.88;3.60;;;21.90;99.90;;;;;;5025252;28;20060;-50
2023/10/02 12:04:10;;;;;;;5.68;3.50;;;22.00;99.90;;;;;;5034082;28;20033;-49
2023/10/02 12:06:38;;;;;;;4.85;3.40;;;22.00;99.90;;;;;;5033132;28;20451;-51
2023/10/02 12:09:05;;;;;;;4.28;3.08;;;22.00;99.90;;;;;;5034001;28;20060;-51
2023/10/02 12:11:32;;;;;;;11.00;4.00;;;22.10;99.90;;;;;;5033056;28;20037;-52
2023/10/02 12:13:59;;;;;;;5.20;3.65;;;22.20;99.90;;;;;;5033930;28;20045;-51
2023/10/02 12:16:26;;;;;;;4.18;2.90;;;22.10;99.90;;;;;;5032749;28;20378;-53
2023/10/02 12:18:53;;;;;;;5.90;3.38;;;22.00;99.90;;;;;;5032614;28;20041;-52
2023/10/02 12:21:21;;;;;;;4.15;3.22;;;21.90;99.90;;;;;;5033184;28;20069;-48
2023/10/02 12:23:48;;;;;;;6.20;3.20;;;21.90;99.90;;;;;;5031120;28;20388;-47
2023/10/02 12:26:15;;;;;;;3.92;3.15;;;21.90;99.90;;;;;;5026707;28;20072;-50
2023/10/02 12:28:42;;;;;;;4.35;3.40;;;21.90;99.90;;;;;;5026703;28;20109;-47
2023/10/02 12:31:10;;;;;;;3.90;2.85;;;22.00;99.90;;;;;;5026954;28;20519;-52
2023/10/02 12:33:38;;;;;;;6.10;3.55;;;22.10;99.90;;;;;;5026847;28;20042;-52
2023/10/02 12:36:06;;;;;;;6.25;3.42;;;22.20;99.90;;;;;;5032317;28;20102;-50
2023/10/02 12:38:33;;;;;;;4.45;3.33;;;22.20;99.90;;;;;;5026323;28;20033;-51
2023/10/02 12:40:59;;;;;;;5.00;3.33;;;22.10;99.90;;;;;;5032437;28;20082;-48
2023/10/02 12:43:26;;;;;;;4.57;3.03;;;22.10;99.90;;;;;;5033247;28;20047;-48
2023/10/02 12:45:53;;;;;;;5.75;3.15;;;22.00;99.90;;;;;;5033081;28;20049;-54
2023/10/02 12:48:20;;;;;;;4.63;3.05;;;22.00;99.90;;;;;;5032063;28;20394;-52
2023/10/02 12:50:47;;;;;;;5.03;3.03;;;22.00;99.90;;;;;;5032534;28;20061;-54
2023/10/02 12:53:14;;;;;;;4.97;3.08;;;22.00;99.90;;;;;;5033231;28;20049;-53
2023/10/02 12:55:44;;;;;;;5.45;3.10;;;22.00;99.90;;;;;;5032968;28;20042;-47
2023/10/02 12:58:10;;;;;;;5.28;3.25;;;22.00;99.90;;;;;;5031852;28;20396;-52
2023/10/02 13:00:37;;;;;;;4.13;2.95;;;22.00;99.90;;;;;;5032322;28;20037;-55
2023/10/02 13:03:06;;;;;;;6.20;3.45;;;22.00;99.90;;;;;;5032956;28;20042;-52
2023/10/02 13:05:33;;;;;;;4.70;3.20;;;22.00;99.90;;;;;;5032774;28;20511;-51
2023/10/02 13:08:00;;;;;;;5.53;3.05;;;22.00;99.90;;;;;;5032699;28;20440;-49
2023/10/02 13:10:28;;;;;;;6.75;3.13;;;22.00;99.90;;;;;;5032844;28;20122;-49